No particular awareness of the weather is required.    There are no Weather-warnings


Meteo18 Weather Cam more information Meteo18 Weather Cam


Thunder radar more information blitzortung!


Rain radar more information rain snow radar


Visit our other weather sites:

Template documentation
and downloads

And another site



Weather Underground History page Text

Daily Summary for January 5, 2018 Units:  Both    English   Metric
« Previous Day
Next Day »
Daily Weekly Monthly Yearly Custom
  High: Low: Average:
Temperature: TemperatureC °F /  -17.8 °C 8.1 °F /  -13.3 °C 9.2 °F /  -12.7 °C
Dew Point: DewpointC °F /  -17.8 °C 7.4 °F /  -13.7 °C 8.2 °F /  -13.2 °C
Humidity: Humidity % 90 % 93 %
Wind Speed: WindSpeedKMH mph /  0 km/h - 8.4 mph /  13.5 km/h
Wind Gust: WindSpeedGustKMH mph /  0 km/h - -
Wind:- - SW
Pressure: PressurehPa in /  0 hPa 1002.3 in /  33937.9 hPa -
Precipitation: 6.1 in /  154.94 mm    
Historical Graphs
 
 
Tabular Data for January 5, 2018
Time Temperature Dew Point Pressure Wind Wind Speed Wind Gust Humidity Rainfall Rate (Hourly)
TemperatureC °F /  -17.8 °C DewpointC °F /  -17.8 °C PressurehPa in /  0 hPa Calm     Humidity % HourlyPrecipMM in /  0 mm
00:03 9.2 °F /  -12.7 °C 7.8 °F /  -13.4 °C 1008.4 in /  34144.4 hPa WSW 4.7 mph /  7.6 km/h 11.3 mph /  18.2 km/h 91 % 0.0 in /  0 mm
00:09 9.1 °F /  -12.7 °C 7.7 °F /  -13.5 °C 1008.0 in /  34130.9 hPa WSW 14.3 mph /  23 km/h 19.3 mph /  31.1 km/h 91 % 0.0 in /  0 mm
00:15 9.1 °F /  -12.7 °C 7.7 °F /  -13.5 °C 1008.0 in /  34130.9 hPa West 11.1 mph /  17.9 km/h 16.1 mph /  25.9 km/h 91 % 0.0 in /  0 mm
00:21 9.1 °F /  -12.7 °C 7.7 °F /  -13.5 °C 1008.4 in /  34144.4 hPa WSW 6.4 mph /  10.3 km/h 11.3 mph /  18.2 km/h 91 % 0.0 in /  0 mm
00:23 9.1 °F /  -12.7 °C 7.7 °F /  -13.5 °C 1008.4 in /  34144.4 hPa WSW 6.4 mph /  10.3 km/h 9.7 mph /  15.6 km/h 91 % 0.0 in /  0 mm
00:25 9.1 °F /  -12.7 °C 7.7 °F /  -13.5 °C 1008.4 in /  34144.4 hPa WSW 7.9 mph /  12.7 km/h 14.5 mph /  23.3 km/h 91 % 0.0 in /  0 mm
00:31 9.1 °F /  -12.7 °C 7.9 °F /  -13.4 °C 1008.0 in /  34130.9 hPa SW 11.1 mph /  17.9 km/h 12.9 mph /  20.8 km/h 92 % 0.0 in /  0 mm
00:37 9.0 °F /  -12.8 °C 7.8 °F /  -13.4 °C 1007.7 in /  34120.7 hPa SW 11.1 mph /  17.9 km/h 14.5 mph /  23.3 km/h 92 % 0.0 in /  0 mm
00:43 9.0 °F /  -12.8 °C 7.8 °F /  -13.4 °C 1008.0 in /  34130.9 hPa SW 9.7 mph /  15.6 km/h 11.3 mph /  18.2 km/h 92 % 0.0 in /  0 mm
00:49 8.9 °F /  -12.8 °C 7.8 °F /  -13.4 °C 1008.0 in /  34130.9 hPa SSW 11.1 mph /  17.9 km/h 16.1 mph /  25.9 km/h 93 % 0.0 in /  0 mm
00:55 8.9 °F /  -12.8 °C 7.8 °F /  -13.4 °C 1007.7 in /  34120.7 hPa SW 6.4 mph /  10.3 km/h 12.9 mph /  20.8 km/h 93 % 0.0 in /  0 mm
01:04 9.0 °F /  -12.8 °C 7.9 °F /  -13.4 °C 1007.7 in /  34120.7 hPa WSW 6.4 mph /  10.3 km/h 12.9 mph /  20.8 km/h 93 % 0.0 in /  0 mm
01:09 8.9 °F /  -12.8 °C 7.8 °F /  -13.4 °C 1007.7 in /  34120.7 hPa SW 20.9 mph /  33.6 km/h 20.9 mph /  33.6 km/h 93 % 0.0 in /  0 mm
01:17 9.0 °F /  -12.8 °C 7.9 °F /  -13.4 °C 1007.7 in /  34120.7 hPa WSW 17.7 mph /  28.5 km/h 17.7 mph /  28.5 km/h 93 % 0.0 in /  0 mm
01:24 9.0 °F /  -12.8 °C 7.9 °F /  -13.4 °C 1007.3 in /  34107.2 hPa SSW 11.1 mph /  17.9 km/h 12.9 mph /  20.8 km/h 93 % 0.0 in /  0 mm
01:32 8.9 °F /  -12.8 °C 7.8 °F /  -13.4 °C 1007.3 in /  34107.2 hPa SW 9.7 mph /  15.6 km/h 14.5 mph /  23.3 km/h 93 % 0.0 in /  0 mm
01:38 8.8 °F /  -12.9 °C 7.7 °F /  -13.5 °C 1007.0 in /  34097 hPa SSW 11.1 mph /  17.9 km/h 17.7 mph /  28.5 km/h 93 % 0.0 in /  0 mm
01:44 8.7 °F /  -12.9 °C 7.8 °F /  -13.4 °C 1007.0 in /  34097 hPa SSW 11.1 mph /  17.9 km/h 12.9 mph /  20.8 km/h 94 % 0.0 in /  0 mm
01:52 8.6 °F /  -13 °C 7.7 °F /  -13.5 °C 1007.0 in /  34097 hPa SSW 7.9 mph /  12.7 km/h 17.7 mph /  28.5 km/h 94 % 0.0 in /  0 mm
01:58 8.5 °F /  -13.1 °C 7.6 °F /  -13.6 °C 1007.0 in /  34097 hPa SSW 9.7 mph /  15.6 km/h 16.1 mph /  25.9 km/h 94 % 0.0 in /  0 mm
02:00 8.5 °F /  -13.1 °C 7.6 °F /  -13.6 °C 1007.0 in /  34097 hPa SSW 11.1 mph /  17.9 km/h 19.3 mph /  31.1 km/h 94 % 0.0 in /  0 mm
02:06 8.4 °F /  -13.1 °C 7.6 °F /  -13.6 °C 1007.0 in /  34097 hPa SSW 11.1 mph /  17.9 km/h 17.7 mph /  28.5 km/h 95 % 0.0 in /  0 mm
02:10 8.4 °F /  -13.1 °C 7.6 °F /  -13.6 °C 1006.7 in /  34086.9 hPa SSW 16.3 mph /  26.2 km/h 16.3 mph /  26.2 km/h 95 % 0.0 in /  0 mm
02:22 8.6 °F /  -13 °C 7.8 °F /  -13.4 °C 1006.3 in /  34073.3 hPa SW 11.1 mph /  17.9 km/h 17.7 mph /  28.5 km/h 95 % 0.0 in /  0 mm
02:28 8.7 °F /  -12.9 °C 7.9 °F /  -13.4 °C 1006.3 in /  34073.3 hPa SSW 9.7 mph /  15.6 km/h 20.9 mph /  33.6 km/h 95 % 0.0 in /  0 mm
02:34 8.8 °F /  -12.9 °C 8.0 °F /  -13.3 °C 1006.3 in /  34073.3 hPa SSW 11.1 mph /  17.9 km/h 19.3 mph /  31.1 km/h 95 % 0.0 in /  0 mm
02:40 8.9 °F /  -12.8 °C 8.1 °F /  -13.3 °C 1006.3 in /  34073.3 hPa SSW 9.7 mph /  15.6 km/h 20.9 mph /  33.6 km/h 95 % 0.0 in /  0 mm
02:46 9.0 °F /  -12.8 °C 8.2 °F /  -13.2 °C 1006.3 in /  34073.3 hPa SW 13.0 mph /  20.9 km/h 19.3 mph /  31.1 km/h 95 % 0.0 in /  0 mm
02:52 9.1 °F /  -12.7 °C 8.3 °F /  -13.2 °C 1006.3 in /  34073.3 hPa SW 13.0 mph /  20.9 km/h 20.9 mph /  33.6 km/h 95 % 0.0 in /  0 mm
03:00 9.3 °F /  -12.6 °C 8.4 °F /  -13.1 °C 1006.0 in /  34063.2 hPa South 14.3 mph /  23 km/h 19.3 mph /  31.1 km/h 94 % 0.0 in /  0 mm
03:10 9.3 °F /  -12.6 °C 8.4 °F /  -13.1 °C 1006.0 in /  34063.2 hPa SW 11.1 mph /  17.9 km/h 20.9 mph /  33.6 km/h 94 % 0.0 in /  0 mm
03:16 9.4 °F /  -12.6 °C 8.5 °F /  -13.1 °C 1006.0 in /  34063.2 hPa South 13.0 mph /  20.9 km/h 19.3 mph /  31.1 km/h 94 % 0.0 in /  0 mm
03:24 9.5 °F /  -12.5 °C 8.6 °F /  -13 °C 1005.6 in /  34049.6 hPa SSW 9.7 mph /  15.6 km/h 16.1 mph /  25.9 km/h 94 % 0.0 in /  0 mm
03:26 9.5 °F /  -12.5 °C 8.6 °F /  -13 °C 1005.6 in /  34049.6 hPa SW 14.3 mph /  23 km/h 20.9 mph /  33.6 km/h 94 % 0.0 in /  0 mm
03:30 9.6 °F /  -12.4 °C 8.7 °F /  -12.9 °C 1005.6 in /  34049.6 hPa SSW 7.9 mph /  12.7 km/h 19.3 mph /  31.1 km/h 94 % 0.0 in /  0 mm
03:36 9.6 °F /  -12.4 °C 8.7 °F /  -12.9 °C 1005.6 in /  34049.6 hPa WSW 14.3 mph /  23 km/h 14.5 mph /  23.3 km/h 94 % 0.0 in /  0 mm
03:40 9.5 °F /  -12.5 °C 8.6 °F /  -13 °C 1005.6 in /  34049.6 hPa SSW 13.0 mph /  20.9 km/h 14.5 mph /  23.3 km/h 94 % 0.0 in /  0 mm
03:46 9.4 °F /  -12.6 °C 8.5 °F /  -13.1 °C 1005.6 in /  34049.6 hPa SSW 3.2 mph /  5.1 km/h 11.3 mph /  18.2 km/h 94 % 0.0 in /  0 mm
03:54 9.3 °F /  -12.6 °C 8.4 °F /  -13.1 °C 1005.6 in /  34049.6 hPa SSE 3.2 mph /  5.1 km/h 9.7 mph /  15.6 km/h 94 % 0.0 in /  0 mm
03:56 9.3 °F /  -12.6 °C 8.5 °F /  -13.1 °C 1005.6 in /  34049.6 hPa SSE 3.2 mph /  5.1 km/h 9.7 mph /  15.6 km/h 95 % 0.0 in /  0 mm
04:00 9.3 °F /  -12.6 °C 8.5 °F /  -13.1 °C 1005.6 in /  34049.6 hPa SSW 3.2 mph /  5.1 km/h 9.7 mph /  15.6 km/h 95 % 0.0 in /  0 mm
04:02 9.3 °F /  -12.6 °C 8.5 °F /  -13.1 °C 1005.6 in /  34049.6 hPa SSW 6.4 mph /  10.3 km/h 9.7 mph /  15.6 km/h 95 % 0.0 in /  0 mm
04:08 9.3 °F /  -12.6 °C 8.5 °F /  -13.1 °C 1005.3 in /  34039.5 hPa SE 6.4 mph /  10.3 km/h 9.7 mph /  15.6 km/h 95 % 0.0 in /  0 mm
04:14 9.2 °F /  -12.7 °C 8.4 °F /  -13.1 °C 1005.3 in /  34039.5 hPa South 6.4 mph /  10.3 km/h 9.7 mph /  15.6 km/h 95 % 0.0 in /  0 mm
04:22 9.2 °F /  -12.7 °C 8.4 °F /  -13.1 °C 1005.0 in /  34029.3 hPa SSE 6.4 mph /  10.3 km/h 11.3 mph /  18.2 km/h 95 % 0.0 in /  0 mm
04:34 9.2 °F /  -12.7 °C 8.4 °F /  -13.1 °C 1004.6 in /  34015.8 hPa South 4.7 mph /  7.6 km/h 11.3 mph /  18.2 km/h 95 % 0.0 in /  0 mm
04:38 9.2 °F /  -12.7 °C 8.4 °F /  -13.1 °C 1004.6 in /  34015.8 hPa SSW 3.2 mph /  5.1 km/h 12.9 mph /  20.8 km/h 95 % 0.0 in /  0 mm
04:40 9.2 °F /  -12.7 °C 8.4 °F /  -13.1 °C 1004.6 in /  34015.8 hPa SSE 4.7 mph /  7.6 km/h 8.0 mph /  12.9 km/h 95 % 0.0 in /  0 mm
04:46 9.1 °F /  -12.7 °C 8.3 °F /  -13.2 °C 1004.6 in /  34015.8 hPa SSW 6.4 mph /  10.3 km/h 8.0 mph /  12.9 km/h 95 % 0.0 in /  0 mm
04:54 9.2 °F /  -12.7 °C 8.4 °F /  -13.1 °C 1004.6 in /  34015.8 hPa ESE 6.4 mph /  10.3 km/h 9.7 mph /  15.6 km/h 95 % 0.0 in /  0 mm
05:02 9.2 °F /  -12.7 °C 8.4 °F /  -13.1 °C 1004.3 in /  34005.6 hPa South 3.2 mph /  5.1 km/h 9.7 mph /  15.6 km/h 95 % 0.0 in /  0 mm
05:10 9.2 °F /  -12.7 °C 8.4 °F /  -13.1 °C 1004.3 in /  34005.6 hPa SSW 4.7 mph /  7.6 km/h 8.0 mph /  12.9 km/h 95 % 0.0 in /  0 mm
05:16 9.2 °F /  -12.7 °C 8.4 °F /  -13.1 °C 1003.9 in /  33992.1 hPa South 4.7 mph /  7.6 km/h 8.0 mph /  12.9 km/h 95 % 0.0 in /  0 mm
05:24 9.3 °F /  -12.6 °C 8.5 °F /  -13.1 °C 1003.9 in /  33992.1 hPa SW 3.2 mph /  5.1 km/h 9.7 mph /  15.6 km/h 95 % 0.0 in /  0 mm
05:31 9.3 °F /  -12.6 °C 8.5 °F /  -13.1 °C 1003.9 in /  33992.1 hPa SSW 4.7 mph /  7.6 km/h 11.3 mph /  18.2 km/h 95 % 0.0 in /  0 mm
05:36 9.4 °F /  -12.6 °C 8.6 °F /  -13 °C 1003.9 in /  33992.1 hPa SSW 3.2 mph /  5.1 km/h 8.0 mph /  12.9 km/h 95 % 0.0 in /  0 mm
05:43 9.4 °F /  -12.6 °C 8.6 °F /  -13 °C 1003.9 in /  33992.1 hPa SSE 7.9 mph /  12.7 km/h 8.0 mph /  12.9 km/h 95 % 0.0 in /  0 mm
05:50 9.4 °F /  -12.6 °C 8.6 °F /  -13 °C 1003.9 in /  33992.1 hPa South 4.7 mph /  7.6 km/h 11.3 mph /  18.2 km/h 95 % 0.0 in /  0 mm
06:00 9.6 °F /  -12.4 °C 8.8 °F /  -12.9 °C 1003.9 in /  33992.1 hPa South 11.1 mph /  17.9 km/h 12.9 mph /  20.8 km/h 95 % 0.0 in /  0 mm
06:06 9.6 °F /  -12.4 °C 8.7 °F /  -12.9 °C 1003.6 in /  33981.9 hPa South 7.9 mph /  12.7 km/h 12.9 mph /  20.8 km/h 94 % 0.0 in /  0 mm
06:12 9.6 °F /  -12.4 °C 8.7 °F /  -12.9 °C 1003.3 in /  33971.7 hPa SSW 6.4 mph /  10.3 km/h 12.9 mph /  20.8 km/h 94 % 0.0 in /  0 mm
06:18 9.6 °F /  -12.4 °C 8.7 °F /  -12.9 °C 1003.3 in /  33971.7 hPa SSW 3.2 mph /  5.1 km/h 8.0 mph /  12.9 km/h 94 % 0.0 in /  0 mm
06:24 9.6 °F /  -12.4 °C 8.7 °F /  -12.9 °C 1003.3 in /  33971.7 hPa SSE 9.7 mph /  15.6 km/h 16.1 mph /  25.9 km/h 94 % 0.0 in /  0 mm
06:30 9.6 °F /  -12.4 °C 8.7 °F /  -12.9 °C 1003.3 in /  33971.7 hPa SSW 7.9 mph /  12.7 km/h 11.3 mph /  18.2 km/h 94 % 0.0 in /  0 mm
06:36 9.5 °F /  -12.5 °C 8.7 °F /  -12.9 °C 1003.3 in /  33971.7 hPa South 7.9 mph /  12.7 km/h 11.3 mph /  18.2 km/h 95 % 0.0 in /  0 mm
06:44 9.6 °F /  -12.4 °C 8.8 °F /  -12.9 °C 1003.3 in /  33971.7 hPa SW 9.7 mph /  15.6 km/h 16.1 mph /  25.9 km/h 95 % 0.0 in /  0 mm
06:52 9.7 °F /  -12.4 °C 8.9 °F /  -12.8 °C 1002.9 in /  33958.2 hPa SSW 7.9 mph /  12.7 km/h 16.1 mph /  25.9 km/h 95 % 0.0 in /  0 mm
06:56 9.7 °F /  -12.4 °C 9.1 °F /  -12.7 °C 1002.9 in /  33958.2 hPa SSW 7.9 mph /  12.7 km/h 14.5 mph /  23.3 km/h 96 % 0.0 in /  0 mm
06:58 9.8 °F /  -12.3 °C 9.2 °F /  -12.7 °C 1002.9 in /  33958.2 hPa SSW 7.9 mph /  12.7 km/h 16.1 mph /  25.9 km/h 96 % 0.0 in /  0 mm
07:04 9.8 °F /  -12.3 °C 9.2 °F /  -12.7 °C 1002.9 in /  33958.2 hPa SSW 11.1 mph /  17.9 km/h 16.1 mph /  25.9 km/h 96 % 0.0 in /  0 mm
07:10 9.7 °F /  -12.4 °C 9.1 °F /  -12.7 °C 1002.9 in /  33958.2 hPa SW 14.3 mph /  23 km/h 14.5 mph /  23.3 km/h 96 % 0.0 in /  0 mm
07:14 9.7 °F /  -12.4 °C 9.1 °F /  -12.7 °C 1002.6 in /  33948 hPa SSW 6.4 mph /  10.3 km/h 12.9 mph /  20.8 km/h 96 % 0.0 in /  0 mm
07:16 9.7 °F /  -12.4 °C 9.1 °F /  -12.7 °C 1002.6 in /  33948 hPa South 4.7 mph /  7.6 km/h 9.7 mph /  15.6 km/h 96 % 0.0 in /  0 mm
07:24 9.7 °F /  -12.4 °C 9.1 °F /  -12.7 °C 1002.6 in /  33948 hPa SSE 7.9 mph /  12.7 km/h 11.3 mph /  18.2 km/h 96 % 0.0 in /  0 mm
07:32 9.7 °F /  -12.4 °C 9.1 °F /  -12.7 °C 1002.6 in /  33948 hPa SSW 3.2 mph /  5.1 km/h 9.7 mph /  15.6 km/h 96 % 0.0 in /  0 mm
07:38 9.7 °F /  -12.4 °C 9.1 °F /  -12.7 °C 1002.6 in /  33948 hPa SSW 6.4 mph /  10.3 km/h 9.7 mph /  15.6 km/h 96 % 0.0 in /  0 mm
07:44 9.7 °F /  -12.4 °C 9.1 °F /  -12.7 °C 1002.6 in /  33948 hPa SSE 4.7 mph /  7.6 km/h 8.0 mph /  12.9 km/h 96 % 0.0 in /  0 mm
07:50 9.7 °F /  -12.4 °C 9.1 °F /  -12.7 °C 1002.6 in /  33948 hPa SSW 7.9 mph /  12.7 km/h 11.3 mph /  18.2 km/h 96 % 0.0 in /  0 mm
07:58 9.7 °F /  -12.4 °C 9.2 °F /  -12.7 °C 1002.6 in /  33948 hPa SSW 7.9 mph /  12.7 km/h 11.3 mph /  18.2 km/h 97 % 0.3 in /  7.62 mm
08:04 9.7 °F /  -12.4 °C 9.2 °F /  -12.7 °C 1002.6 in /  33948 hPa SW 6.4 mph /  10.3 km/h 11.3 mph /  18.2 km/h 97 % 0.3 in /  7.62 mm
08:12 9.7 °F /  -12.4 °C 9.2 °F /  -12.7 °C 1002.6 in /  33948 hPa SW 6.4 mph /  10.3 km/h 14.5 mph /  23.3 km/h 97 % 0.5 in /  12.7 mm
08:18 9.8 °F /  -12.3 °C 9.3 °F /  -12.6 °C 1002.6 in /  33948 hPa SSW 11.1 mph /  17.9 km/h 17.7 mph /  28.5 km/h 97 % 0.5 in /  12.7 mm
08:24 9.8 °F /  -12.3 °C 9.3 °F /  -12.6 °C 1002.3 in /  33937.9 hPa SSW 6.4 mph /  10.3 km/h 12.9 mph /  20.8 km/h 97 % 0.5 in /  12.7 mm
08:30 9.8 °F /  -12.3 °C 9.3 °F /  -12.6 °C 1002.3 in /  33937.9 hPa SSW 7.9 mph /  12.7 km/h 16.1 mph /  25.9 km/h 97 % 0.5 in /  12.7 mm
08:36 9.9 °F /  -12.3 °C 9.4 °F /  -12.6 °C 1002.3 in /  33937.9 hPa South 14.3 mph /  23 km/h 17.7 mph /  28.5 km/h 97 % 0.5 in /  12.7 mm
08:44 9.9 °F /  -12.3 °C 9.4 °F /  -12.6 °C 1002.3 in /  33937.9 hPa SSW 16.3 mph /  26.2 km/h 20.9 mph /  33.6 km/h 97 % 0.5 in /  12.7 mm
08:50 10.0 °F /  -12.2 °C 9.5 °F /  -12.5 °C 1002.3 in /  33937.9 hPa SSW 13.0 mph /  20.9 km/h 19.3 mph /  31.1 km/h 97 % 0.8 in /  20.32 mm
08:56 10.0 °F /  -12.2 °C 9.5 °F /  -12.5 °C 1002.6 in /  33948 hPa SW 9.7 mph /  15.6 km/h 16.1 mph /  25.9 km/h 97 % 1.0 in /  25.4 mm
09:02 10.1 °F /  -12.2 °C 9.6 °F /  -12.4 °C 1002.3 in /  33937.9 hPa SSW 11.1 mph /  17.9 km/h 16.1 mph /  25.9 km/h 97 % 0.8 in /  20.32 mm
09:08 10.1 °F /  -12.2 °C 9.6 °F /  -12.4 °C 1002.3 in /  33937.9 hPa SSW 11.1 mph /  17.9 km/h 19.3 mph /  31.1 km/h 97 % 1.0 in /  25.4 mm
09:10 10.1 °F /  -12.2 °C 9.6 °F /  -12.4 °C 1002.3 in /  33937.9 hPa SW 17.7 mph /  28.5 km/h 17.7 mph /  28.5 km/h 97 % 0.8 in /  20.32 mm
09:16 10.1 °F /  -12.2 °C 9.6 °F /  -12.4 °C 1002.3 in /  33937.9 hPa SW 7.9 mph /  12.7 km/h 16.1 mph /  25.9 km/h 97 % 1.0 in /  25.4 mm
09:22 10.1 °F /  -12.2 °C 9.6 °F /  -12.4 °C 1002.3 in /  33937.9 hPa SW 11.1 mph /  17.9 km/h 16.1 mph /  25.9 km/h 97 % 0.8 in /  20.32 mm
09:28 10.2 °F /  -12.1 °C 9.7 °F /  -12.4 °C 1002.6 in /  33948 hPa SW 13.0 mph /  20.9 km/h 13.0 mph /  20.9 km/h 97 % 1.0 in /  25.4 mm
09:38 10.3 °F /  -12.1 °C 9.8 °F /  -12.3 °C 1002.6 in /  33948 hPa SW 13.0 mph /  20.9 km/h 17.7 mph /  28.5 km/h 97 % 1.5 in /  38.1 mm
09:46 10.3 °F /  -12.1 °C 9.8 °F /  -12.3 °C 1002.9 in /  33958.2 hPa West 13.0 mph /  20.9 km/h 16.1 mph /  25.9 km/h 97 % 1.8 in /  45.72 mm
09:58 9.9 °F /  -12.3 °C 9.0 °F /  -12.8 °C 1002.9 in /  33958.2 hPa West 16.3 mph /  26.2 km/h 35.4 mph /  57 km/h 94 % 2.3 in /  58.42 mm
10:04 9.8 °F /  -12.3 °C 8.6 °F /  -13 °C 1002.9 in /  33958.2 hPa West 13.0 mph /  20.9 km/h 20.9 mph /  33.6 km/h 92 % 2.3 in /  58.42 mm
10:10 9.8 °F /  -12.3 °C 8.4 °F /  -13.1 °C 1002.9 in /  33958.2 hPa West 17.7 mph /  28.5 km/h 24.1 mph /  38.8 km/h 91 % 2.3 in /  58.42 mm
10:13 9.8 °F /  -12.3 °C 8.4 °F /  -13.1 °C 1002.9 in /  33958.2 hPa West 17.7 mph /  28.5 km/h 20.9 mph /  33.6 km/h 91 % 2.3 in /  58.42 mm
10:18 9.9 °F /  -12.3 °C 8.3 °F /  -13.2 °C 1002.9 in /  33958.2 hPa West 7.9 mph /  12.7 km/h 17.7 mph /  28.5 km/h 90 % 2.3 in /  58.42 mm
10:28 9.9 °F /  -12.3 °C 8.3 °F /  -13.2 °C 1002.9 in /  33958.2 hPa WNW 9.7 mph /  15.6 km/h 9.7 mph /  15.6 km/h 90 % 2.0 in /  50.8 mm
10:40 9.8 °F /  -12.3 °C 8.2 °F /  -13.2 °C 1002.9 in /  33958.2 hPa WNW 3.2 mph /  5.1 km/h 8.0 mph /  12.9 km/h 90 % 1.5 in /  38.1 mm
10:46 9.8 °F /  -12.3 °C 8.2 °F /  -13.2 °C 1003.3 in /  33971.7 hPa SW 3.2 mph /  5.1 km/h 8.0 mph /  12.9 km/h 90 % 1.3 in /  33.02 mm
10:52 9.8 °F /  -12.3 °C 8.2 °F /  -13.2 °C 1003.3 in /  33971.7 hPa West 4.7 mph /  7.6 km/h 9.7 mph /  15.6 km/h 90 % 0.8 in /  20.32 mm
11:02 9.8 °F /  -12.3 °C 8.4 °F /  -13.1 °C 1003.3 in /  33971.7 hPa West 3.2 mph /  5.1 km/h 6.4 mph /  10.3 km/h 91 % 0.5 in /  12.7 mm
11:06 9.8 °F /  -12.3 °C 8.6 °F /  -13 °C 1003.6 in /  33981.9 hPa SW 6.4 mph /  10.3 km/h 6.4 mph /  10.3 km/h 92 % 0.5 in /  12.7 mm
11:08 9.8 °F /  -12.3 °C 8.6 °F /  -13 °C 1003.6 in /  33981.9 hPa NW 3.2 mph /  5.1 km/h 9.7 mph /  15.6 km/h 92 % 0.5 in /  12.7 mm
11:14 9.8 °F /  -12.3 °C 8.6 °F /  -13 °C 1003.6 in /  33981.9 hPa West 11.1 mph /  17.9 km/h 16.1 mph /  25.9 km/h 92 % 0.5 in /  12.7 mm
11:21 9.9 °F /  -12.3 °C 8.7 °F /  -12.9 °C 1003.9 in /  33992.1 hPa West 6.4 mph /  10.3 km/h 14.5 mph /  23.3 km/h 92 % 0.5 in /  12.7 mm
11:28 9.9 °F /  -12.3 °C 8.8 °F /  -12.9 °C 1003.9 in /  33992.1 hPa WSW 6.4 mph /  10.3 km/h 14.5 mph /  23.3 km/h 93 % 0.5 in /  12.7 mm
11:34 9.9 °F /  -12.3 °C 8.8 °F /  -12.9 °C 1003.9 in /  33992.1 hPa WSW 6.4 mph /  10.3 km/h 11.3 mph /  18.2 km/h 93 % 0.5 in /  12.7 mm
11:41 9.9 °F /  -12.3 °C 8.8 °F /  -12.9 °C 1003.9 in /  33992.1 hPa WSW 7.9 mph /  12.7 km/h 17.7 mph /  28.5 km/h 93 % 0.8 in /  20.32 mm
11:49 9.9 °F /  -12.3 °C 8.8 °F /  -12.9 °C 1003.9 in /  33992.1 hPa WSW 17.7 mph /  28.5 km/h 17.7 mph /  28.5 km/h 93 % 0.8 in /  20.32 mm
11:55 9.8 °F /  -12.3 °C 8.7 °F /  -12.9 °C 1003.9 in /  33992.1 hPa WSW 6.4 mph /  10.3 km/h 12.9 mph /  20.8 km/h 93 % 0.8 in /  20.32 mm
12:01 9.8 °F /  -12.3 °C 8.7 °F /  -12.9 °C 1003.6 in /  33981.9 hPa SW 7.9 mph /  12.7 km/h 19.3 mph /  31.1 km/h 93 % 0.5 in /  12.7 mm
12:07 9.8 °F /  -12.3 °C 8.6 °F /  -13 °C 1003.6 in /  33981.9 hPa WSW 14.3 mph /  23 km/h 16.1 mph /  25.9 km/h 92 % 0.5 in /  12.7 mm
12:13 9.8 °F /  -12.3 °C 8.6 °F /  -13 °C 1003.6 in /  33981.9 hPa SW 6.4 mph /  10.3 km/h 20.9 mph /  33.6 km/h 92 % 0.8 in /  20.32 mm
12:15 9.8 °F /  -12.3 °C 8.7 °F /  -12.9 °C 1003.6 in /  33981.9 hPa WSW 16.3 mph /  26.2 km/h 16.3 mph /  26.2 km/h 93 % 0.8 in /  20.32 mm
12:19 9.7 °F /  -12.4 °C 8.6 °F /  -13 °C 1003.6 in /  33981.9 hPa SW 11.1 mph /  17.9 km/h 14.5 mph /  23.3 km/h 93 % 0.8 in /  20.32 mm
12:25 9.7 °F /  -12.4 °C 8.5 °F /  -13.1 °C 1003.3 in /  33971.7 hPa SSW 17.7 mph /  28.5 km/h 22.5 mph /  36.2 km/h 92 % 0.8 in /  20.32 mm
12:31 9.7 °F /  -12.4 °C 8.6 °F /  -13 °C 1003.3 in /  33971.7 hPa SW 17.7 mph /  28.5 km/h 19.3 mph /  31.1 km/h 93 % 0.5 in /  12.7 mm
12:37 9.6 °F /  -12.4 °C 8.4 °F /  -13.1 °C 1002.9 in /  33958.2 hPa SW 17.7 mph /  28.5 km/h 22.5 mph /  36.2 km/h 92 % 0.5 in /  12.7 mm
12:43 9.5 °F /  -12.5 °C 8.3 °F /  -13.2 °C 1002.9 in /  33958.2 hPa SSW 11.1 mph /  17.9 km/h 20.9 mph /  33.6 km/h 92 % 0.5 in /  12.7 mm
12:49 9.4 °F /  -12.6 °C 8.2 °F /  -13.2 °C 1002.9 in /  33958.2 hPa SW 17.7 mph /  28.5 km/h 22.5 mph /  36.2 km/h 92 % 0.3 in /  7.62 mm
12:57 9.4 °F /  -12.6 °C 8.2 °F /  -13.2 °C 1002.6 in /  33948 hPa SSW 17.7 mph /  28.5 km/h 20.9 mph /  33.6 km/h 92 % 0.3 in /  7.62 mm
13:03 9.3 °F /  -12.6 °C 7.9 °F /  -13.4 °C 1002.6 in /  33948 hPa SSW 11.1 mph /  17.9 km/h 22.5 mph /  36.2 km/h 91 % 0.3 in /  7.62 mm
13:09 9.3 °F /  -12.6 °C 7.9 °F /  -13.4 °C 1002.9 in /  33958.2 hPa SSW 9.7 mph /  15.6 km/h 22.5 mph /  36.2 km/h 91 % 0.0 in /  0 mm
13:11 9.3 °F /  -12.6 °C 7.9 °F /  -13.4 °C 1002.9 in /  33958.2 hPa SW 19.5 mph /  31.4 km/h 24.1 mph /  38.8 km/h 91 % 0.0 in /  0 mm
13:20 9.3 °F /  -12.6 °C 7.7 °F /  -13.5 °C 1002.9 in /  33958.2 hPa SW 7.9 mph /  12.7 km/h 17.7 mph /  28.5 km/h 90 % 0.0 in /  0 mm
13:29 9.3 °F /  -12.6 °C 7.7 °F /  -13.5 °C 1003.3 in /  33971.7 hPa SW 7.9 mph /  12.7 km/h 14.5 mph /  23.3 km/h 90 % 0.0 in /  0 mm
13:33 9.3 °F /  -12.6 °C 7.7 °F /  -13.5 °C 1002.9 in /  33958.2 hPa WSW 4.7 mph /  7.6 km/h 14.5 mph /  23.3 km/h 90 % 0.0 in /  0 mm
13:45 9.3 °F /  -12.6 °C 7.9 °F /  -13.4 °C 1002.9 in /  33958.2 hPa WSW 17.7 mph /  28.5 km/h 20.9 mph /  33.6 km/h 91 % 0.0 in /  0 mm
13:53 9.3 °F /  -12.6 °C 8.1 °F /  -13.3 °C 1002.9 in /  33958.2 hPa SW 7.9 mph /  12.7 km/h 11.3 mph /  18.2 km/h 92 % 0.0 in /  0 mm
13:59 9.3 °F /  -12.6 °C 8.1 °F /  -13.3 °C 1002.9 in /  33958.2 hPa SW 7.9 mph /  12.7 km/h 14.5 mph /  23.3 km/h 92 % 0.0 in /  0 mm
14:03 9.4 °F /  -12.6 °C 8.2 °F /  -13.2 °C 1002.9 in /  33958.2 hPa SW 6.4 mph /  10.3 km/h 12.9 mph /  20.8 km/h 92 % 0.0 in /  0 mm
14:09 9.4 °F /  -12.6 °C 8.2 °F /  -13.2 °C 1002.9 in /  33958.2 hPa SSW 7.9 mph /  12.7 km/h 19.3 mph /  31.1 km/h 92 % 0.0 in /  0 mm
14:15 9.5 °F /  -12.5 °C 8.4 °F /  -13.1 °C 1003.3 in /  33971.7 hPa SW 4.7 mph /  7.6 km/h 9.7 mph /  15.6 km/h 93 % 0.0 in /  0 mm
14:21 9.5 °F /  -12.5 °C 8.3 °F /  -13.2 °C 1003.3 in /  33971.7 hPa SW 9.7 mph /  15.6 km/h 16.1 mph /  25.9 km/h 92 % 0.0 in /  0 mm
14:27 9.5 °F /  -12.5 °C 8.3 °F /  -13.2 °C 1003.3 in /  33971.7 hPa SSW 3.2 mph /  5.1 km/h 17.7 mph /  28.5 km/h 92 % 0.0 in /  0 mm
14:33 9.6 °F /  -12.4 °C 8.4 °F /  -13.1 °C 1003.3 in /  33971.7 hPa West 13.0 mph /  20.9 km/h 20.9 mph /  33.6 km/h 92 % 0.0 in /  0 mm
14:43 9.6 °F /  -12.4 °C 8.4 °F /  -13.1 °C 1003.3 in /  33971.7 hPa SW 6.4 mph /  10.3 km/h 16.1 mph /  25.9 km/h 92 % 0.0 in /  0 mm
14:49 9.6 °F /  -12.4 °C 8.4 °F /  -13.1 °C 1003.3 in /  33971.7 hPa SW 16.3 mph /  26.2 km/h 25.7 mph /  41.4 km/h 92 % 0.0 in /  0 mm
14:55 9.6 °F /  -12.4 °C 8.4 °F /  -13.1 °C 1003.3 in /  33971.7 hPa South 7.9 mph /  12.7 km/h 14.5 mph /  23.3 km/h 92 % 0.0 in /  0 mm
15:01 9.6 °F /  -12.4 °C 8.4 °F /  -13.1 °C 1003.3 in /  33971.7 hPa SW 13.0 mph /  20.9 km/h 14.5 mph /  23.3 km/h 92 % 0.0 in /  0 mm
15:03 9.6 °F /  -12.4 °C 8.4 °F /  -13.1 °C 1003.3 in /  33971.7 hPa SSW 13.0 mph /  20.9 km/h 19.3 mph /  31.1 km/h 92 % 0.0 in /  0 mm
15:09 9.6 °F /  -12.4 °C 8.4 °F /  -13.1 °C 1003.6 in /  33981.9 hPa WSW 9.7 mph /  15.6 km/h 14.5 mph /  23.3 km/h 92 % 0.0 in /  0 mm
15:15 9.6 °F /  -12.4 °C 8.4 °F /  -13.1 °C 1003.6 in /  33981.9 hPa SSW 9.7 mph /  15.6 km/h 14.5 mph /  23.3 km/h 92 % 0.0 in /  0 mm
15:21 9.6 °F /  -12.4 °C 8.4 °F /  -13.1 °C 1003.6 in /  33981.9 hPa WSW 4.7 mph /  7.6 km/h 14.5 mph /  23.3 km/h 92 % 0.0 in /  0 mm
15:29 9.6 °F /  -12.4 °C 8.4 °F /  -13.1 °C 1003.6 in /  33981.9 hPa SW 6.4 mph /  10.3 km/h 16.1 mph /  25.9 km/h 92 % 0.0 in /  0 mm
15:33 9.6 °F /  -12.4 °C 8.4 °F /  -13.1 °C 1003.6 in /  33981.9 hPa WSW 9.7 mph /  15.6 km/h 12.9 mph /  20.8 km/h 92 % 0.0 in /  0 mm
15:35 9.6 °F /  -12.4 °C 8.4 °F /  -13.1 °C 1003.6 in /  33981.9 hPa SW 11.1 mph /  17.9 km/h 11.3 mph /  18.2 km/h 92 % 0.0 in /  0 mm
15:41 9.6 °F /  -12.4 °C 8.4 °F /  -13.1 °C 1003.6 in /  33981.9 hPa SW 11.1 mph /  17.9 km/h 17.7 mph /  28.5 km/h 92 % 0.0 in /  0 mm
15:47 9.6 °F /  -12.4 °C 8.4 °F /  -13.1 °C 1003.9 in /  33992.1 hPa SSW 4.7 mph /  7.6 km/h 11.3 mph /  18.2 km/h 92 % 0.0 in /  0 mm
15:53 9.6 °F /  -12.4 °C 8.4 °F /  -13.1 °C 1003.6 in /  33981.9 hPa SW 7.9 mph /  12.7 km/h 12.9 mph /  20.8 km/h 92 % 0.0 in /  0 mm
15:59 9.6 °F /  -12.4 °C 8.4 °F /  -13.1 °C 1003.6 in /  33981.9 hPa SW 9.7 mph /  15.6 km/h 14.5 mph /  23.3 km/h 92 % 0.0 in /  0 mm
16:05 9.5 °F /  -12.5 °C 8.4 °F /  -13.1 °C 1003.6 in /  33981.9 hPa SW 13.0 mph /  20.9 km/h 14.5 mph /  23.3 km/h 93 % 0.0 in /  0 mm
16:11 9.5 °F /  -12.5 °C 8.4 °F /  -13.1 °C 1003.9 in /  33992.1 hPa West 3.2 mph /  5.1 km/h 11.3 mph /  18.2 km/h 93 % 0.0 in /  0 mm
16:19 9.4 °F /  -12.6 °C 8.2 °F /  -13.2 °C 1003.9 in /  33992.1 hPa SW 4.7 mph /  7.6 km/h 12.9 mph /  20.8 km/h 92 % 0.0 in /  0 mm
16:25 9.4 °F /  -12.6 °C 8.2 °F /  -13.2 °C 1003.6 in /  33981.9 hPa SW 4.7 mph /  7.6 km/h 9.7 mph /  15.6 km/h 92 % 0.0 in /  0 mm
16:33 9.4 °F /  -12.6 °C 8.2 °F /  -13.2 °C 1003.6 in /  33981.9 hPa SW 9.7 mph /  15.6 km/h 14.5 mph /  23.3 km/h 92 % 0.0 in /  0 mm
16:39 9.4 °F /  -12.6 °C 8.0 °F /  -13.3 °C 1003.6 in /  33981.9 hPa SW 11.1 mph /  17.9 km/h 17.7 mph /  28.5 km/h 91 % 0.0 in /  0 mm
16:47 9.4 °F /  -12.6 °C 8.0 °F /  -13.3 °C 1003.6 in /  33981.9 hPa SW 7.9 mph /  12.7 km/h 19.3 mph /  31.1 km/h 91 % 0.0 in /  0 mm
16:59 9.4 °F /  -12.6 °C 7.8 °F /  -13.4 °C 1003.6 in /  33981.9 hPa SW 4.7 mph /  7.6 km/h 16.1 mph /  25.9 km/h 90 % 0.0 in /  0 mm
17:08 9.4 °F /  -12.6 °C 7.8 °F /  -13.4 °C 1003.6 in /  33981.9 hPa WSW 13.0 mph /  20.9 km/h 13.0 mph /  20.9 km/h 90 % 0.0 in /  0 mm
17:09 9.3 °F /  -12.6 °C 7.7 °F /  -13.5 °C 1003.9 in /  33992.1 hPa SW 6.4 mph /  10.3 km/h 9.7 mph /  15.6 km/h 90 % 0.0 in /  0 mm
17:15 9.3 °F /  -12.6 °C 7.7 °F /  -13.5 °C 1003.6 in /  33981.9 hPa SW 7.9 mph /  12.7 km/h 12.9 mph /  20.8 km/h 90 % 0.0 in /  0 mm
17:21 9.3 °F /  -12.6 °C 7.7 °F /  -13.5 °C 1003.6 in /  33981.9 hPa SSW 6.4 mph /  10.3 km/h 11.3 mph /  18.2 km/h 90 % 0.0 in /  0 mm
17:27 9.2 °F /  -12.7 °C 7.8 °F /  -13.4 °C 1003.6 in /  33981.9 hPa SW 11.1 mph /  17.9 km/h 12.9 mph /  20.8 km/h 91 % 0.0 in /  0 mm
17:35 9.1 °F /  -12.7 °C 7.7 °F /  -13.5 °C 1003.9 in /  33992.1 hPa SW 7.9 mph /  12.7 km/h 9.7 mph /  15.6 km/h 91 % 0.0 in /  0 mm
17:41 9.1 °F /  -12.7 °C 7.7 °F /  -13.5 °C 1003.9 in /  33992.1 hPa SW 9.7 mph /  15.6 km/h 14.5 mph /  23.3 km/h 91 % 0.0 in /  0 mm
17:50 9.1 °F /  -12.7 °C 7.7 °F /  -13.5 °C 1003.9 in /  33992.1 hPa SW 13.0 mph /  20.9 km/h 13.0 mph /  20.9 km/h 91 % 0.0 in /  0 mm
17:53 9.1 °F /  -12.7 °C 7.7 °F /  -13.5 °C 1003.9 in /  33992.1 hPa SSW 6.4 mph /  10.3 km/h 11.3 mph /  18.2 km/h 91 % 0.0 in /  0 mm
18:03 8.9 °F /  -12.8 °C 7.7 °F /  -13.5 °C 1003.9 in /  33992.1 hPa SW 3.2 mph /  5.1 km/h 9.7 mph /  15.6 km/h 92 % 0.0 in /  0 mm
18:05 8.9 °F /  -12.8 °C 7.7 °F /  -13.5 °C 1003.9 in /  33992.1 hPa SSW 7.9 mph /  12.7 km/h 11.3 mph /  18.2 km/h 92 % 0.0 in /  0 mm
18:09 8.9 °F /  -12.8 °C 7.7 °F /  -13.5 °C 1003.9 in /  33992.1 hPa SW 6.4 mph /  10.3 km/h 11.3 mph /  18.2 km/h 92 % 0.0 in /  0 mm
18:11 8.9 °F /  -12.8 °C 7.7 °F /  -13.5 °C 1003.9 in /  33992.1 hPa SW 7.9 mph /  12.7 km/h 11.3 mph /  18.2 km/h 92 % 0.0 in /  0 mm
18:17 8.9 °F /  -12.8 °C 7.7 °F /  -13.5 °C 1003.9 in /  33992.1 hPa WSW 7.9 mph /  12.7 km/h 12.9 mph /  20.8 km/h 92 % 0.0 in /  0 mm
18:21 8.9 °F /  -12.8 °C 7.7 °F /  -13.5 °C 1003.9 in /  33992.1 hPa SW 4.7 mph /  7.6 km/h 14.5 mph /  23.3 km/h 92 % 0.0 in /  0 mm
18:25 8.9 °F /  -12.8 °C 7.7 °F /  -13.5 °C 1003.9 in /  33992.1 hPa SSW 6.4 mph /  10.3 km/h 11.3 mph /  18.2 km/h 92 % 0.0 in /  0 mm
18:33 8.9 °F /  -12.8 °C 7.7 °F /  -13.5 °C 1003.9 in /  33992.1 hPa SSW 4.7 mph /  7.6 km/h 9.7 mph /  15.6 km/h 92 % 0.0 in /  0 mm
18:43 8.8 °F /  -12.9 °C 7.7 °F /  -13.5 °C 1003.9 in /  33992.1 hPa SW 7.9 mph /  12.7 km/h 11.3 mph /  18.2 km/h 93 % 0.0 in /  0 mm
18:53 8.8 °F /  -12.9 °C 7.7 °F /  -13.5 °C 1003.9 in /  33992.1 hPa SSW 9.7 mph /  15.6 km/h 9.7 mph /  15.6 km/h 93 % 0.0 in /  0 mm
19:01 8.8 °F /  -12.9 °C 7.7 °F /  -13.5 °C 1003.9 in /  33992.1 hPa SSW 6.4 mph /  10.3 km/h 11.3 mph /  18.2 km/h 93 % 0.0 in /  0 mm
19:09 8.8 °F /  -12.9 °C 7.7 °F /  -13.5 °C 1003.9 in /  33992.1 hPa SW 7.9 mph /  12.7 km/h 12.9 mph /  20.8 km/h 93 % 0.0 in /  0 mm
19:15 8.8 °F /  -12.9 °C 7.7 °F /  -13.5 °C 1004.3 in /  34005.6 hPa SW 11.1 mph /  17.9 km/h 16.1 mph /  25.9 km/h 93 % 0.0 in /  0 mm
19:23 8.9 °F /  -12.8 °C 7.8 °F /  -13.4 °C 1004.3 in /  34005.6 hPa SW 13.0 mph /  20.9 km/h 17.7 mph /  28.5 km/h 93 % 0.0 in /  0 mm
19:29 8.8 °F /  -12.9 °C 7.7 °F /  -13.5 °C 1004.3 in /  34005.6 hPa SW 6.4 mph /  10.3 km/h 12.9 mph /  20.8 km/h 93 % 0.0 in /  0 mm
19:43 8.6 °F /  -13 °C 7.7 °F /  -13.5 °C 1004.3 in /  34005.6 hPa WSW 3.2 mph /  5.1 km/h 8.0 mph /  12.9 km/h 94 % 0.0 in /  0 mm
19:45 8.5 °F /  -13.1 °C 7.6 °F /  -13.6 °C 1004.3 in /  34005.6 hPa WSW 4.7 mph /  7.6 km/h 8.0 mph /  12.9 km/h 94 % 0.0 in /  0 mm
19:49 8.5 °F /  -13.1 °C 7.6 °F /  -13.6 °C 1004.3 in /  34005.6 hPa WSW 4.7 mph /  7.6 km/h 9.7 mph /  15.6 km/h 94 % 0.0 in /  0 mm
19:55 8.5 °F /  -13.1 °C 7.6 °F /  -13.6 °C 1004.6 in /  34015.8 hPa SW 6.4 mph /  10.3 km/h 9.7 mph /  15.6 km/h 94 % 0.0 in /  0 mm
19:57 8.4 °F /  -13.1 °C 7.5 °F /  -13.6 °C 1004.6 in /  34015.8 hPa WSW 4.7 mph /  7.6 km/h 6.4 mph /  10.3 km/h 94 % 0.0 in /  0 mm
20:01 8.4 °F /  -13.1 °C 7.6 °F /  -13.6 °C 1004.6 in /  34015.8 hPa WSW 9.7 mph /  15.6 km/h 9.7 mph /  15.6 km/h 95 % 0.3 in /  7.62 mm
20:09 8.4 °F /  -13.1 °C 7.6 °F /  -13.6 °C 1004.6 in /  34015.8 hPa West 6.4 mph /  10.3 km/h 6.4 mph /  10.3 km/h 95 % 0.3 in /  7.62 mm
20:13 8.4 °F /  -13.1 °C 7.6 °F /  -13.6 °C 1004.6 in /  34015.8 hPa WSW 4.7 mph /  7.6 km/h 9.7 mph /  15.6 km/h 95 % 0.3 in /  7.62 mm
20:20 8.4 °F /  -13.1 °C 7.6 °F /  -13.6 °C 1004.3 in /  34005.6 hPa West 3.2 mph /  5.1 km/h 9.7 mph /  15.6 km/h 95 % 0.3 in /  7.62 mm
20:27 8.3 °F /  -13.2 °C 7.7 °F /  -13.5 °C 1004.6 in /  34015.8 hPa SW 4.7 mph /  7.6 km/h 12.9 mph /  20.8 km/h 96 % 0.5 in /  12.7 mm
20:35 8.3 °F /  -13.2 °C 7.7 °F /  -13.5 °C 1004.6 in /  34015.8 hPa SSW 7.9 mph /  12.7 km/h 12.9 mph /  20.8 km/h 96 % 0.5 in /  12.7 mm
20:43 8.3 °F /  -13.2 °C 7.7 °F /  -13.5 °C 1004.6 in /  34015.8 hPa SSW 7.9 mph /  12.7 km/h 12.9 mph /  20.8 km/h 96 % 0.5 in /  12.7 mm
20:50 8.3 °F /  -13.2 °C 7.7 °F /  -13.5 °C 1004.6 in /  34015.8 hPa SW 3.2 mph /  5.1 km/h 8.0 mph /  12.9 km/h 96 % 0.5 in /  12.7 mm
20:55 8.2 °F /  -13.2 °C 7.6 °F /  -13.6 °C 1004.6 in /  34015.8 hPa SW 6.4 mph /  10.3 km/h 9.7 mph /  15.6 km/h 96 % 0.5 in /  12.7 mm
21:03 8.2 °F /  -13.2 °C 7.6 °F /  -13.6 °C 1004.6 in /  34015.8 hPa SW 4.7 mph /  7.6 km/h 8.0 mph /  12.9 km/h 96 % 0.3 in /  7.62 mm
21:10 8.2 °F /  -13.2 °C 7.6 °F /  -13.6 °C 1004.6 in /  34015.8 hPa WSW 4.7 mph /  7.6 km/h 8.0 mph /  12.9 km/h 96 % 0.3 in /  7.62 mm
21:16 8.2 °F /  -13.2 °C 7.6 °F /  -13.6 °C 1004.6 in /  34015.8 hPa SW 4.7 mph /  7.6 km/h 6.4 mph /  10.3 km/h 96 % 0.5 in /  12.7 mm
21:22 8.2 °F /  -13.2 °C 7.6 °F /  -13.6 °C 1004.3 in /  34005.6 hPa SSW 4.7 mph /  7.6 km/h 6.4 mph /  10.3 km/h 96 % 0.5 in /  12.7 mm
21:24 8.2 °F /  -13.2 °C 7.6 °F /  -13.6 °C 1004.3 in /  34005.6 hPa SSW 3.2 mph /  5.1 km/h 6.4 mph /  10.3 km/h 96 % 0.5 in /  12.7 mm
21:32 8.2 °F /  -13.2 °C 7.6 °F /  -13.6 °C 1004.3 in /  34005.6 hPa SSW 3.2 mph /  5.1 km/h 4.8 mph /  7.7 km/h 96 % 0.3 in /  7.62 mm
21:38 8.2 °F /  -13.2 °C 7.6 °F /  -13.6 °C 1004.3 in /  34005.6 hPa SSW 4.7 mph /  7.6 km/h 8.0 mph /  12.9 km/h 96 % 0.5 in /  12.7 mm
21:46 8.2 °F /  -13.2 °C 7.6 °F /  -13.6 °C 1004.6 in /  34015.8 hPa SSW 3.2 mph /  5.1 km/h 8.0 mph /  12.9 km/h 96 % 0.5 in /  12.7 mm
21:48 8.2 °F /  -13.2 °C 7.6 °F /  -13.6 °C 1004.6 in /  34015.8 hPa South 6.4 mph /  10.3 km/h 6.4 mph /  10.3 km/h 96 % 0.5 in /  12.7 mm
21:54 8.2 °F /  -13.2 °C 7.6 °F /  -13.6 °C 1004.6 in /  34015.8 hPa SSW 7.9 mph /  12.7 km/h 9.7 mph /  15.6 km/h 96 % 0.5 in /  12.7 mm
21:58 8.2 °F /  -13.2 °C 7.6 °F /  -13.6 °C 1004.6 in /  34015.8 hPa SSW 4.7 mph /  7.6 km/h 9.7 mph /  15.6 km/h 96 % 0.5 in /  12.7 mm
22:00 8.2 °F /  -13.2 °C 7.6 °F /  -13.6 °C 1004.6 in /  34015.8 hPa SW 7.9 mph /  12.7 km/h 11.3 mph /  18.2 km/h 96 % 0.5 in /  12.7 mm
22:06 8.2 °F /  -13.2 °C 7.6 °F /  -13.6 °C 1004.6 in /  34015.8 hPa SSW 4.7 mph /  7.6 km/h 9.7 mph /  15.6 km/h 96 % 0.5 in /  12.7 mm
22:12 8.2 °F /  -13.2 °C 7.6 °F /  -13.6 °C 1004.6 in /  34015.8 hPa SW 13.0 mph /  20.9 km/h 13.0 mph /  20.9 km/h 96 % 0.5 in /  12.7 mm
22:18 8.2 °F /  -13.2 °C 7.6 °F /  -13.6 °C 1004.6 in /  34015.8 hPa SW 11.1 mph /  17.9 km/h 17.7 mph /  28.5 km/h 96 % 0.3 in /  7.62 mm
22:24 8.2 °F /  -13.2 °C 7.4 °F /  -13.7 °C 1004.6 in /  34015.8 hPa SW 11.1 mph /  17.9 km/h 12.9 mph /  20.8 km/h 95 % 0.3 in /  7.62 mm
22:30 8.2 °F /  -13.2 °C 7.4 °F /  -13.7 °C 1004.6 in /  34015.8 hPa SSW 9.7 mph /  15.6 km/h 14.5 mph /  23.3 km/h 95 % 0.3 in /  7.62 mm
22:42 8.2 °F /  -13.2 °C 7.4 °F /  -13.7 °C 1004.6 in /  34015.8 hPa SSW 3.2 mph /  5.1 km/h 9.7 mph /  15.6 km/h 95 % 0.0 in /  0 mm
22:50 8.3 °F /  -13.2 °C 7.5 °F /  -13.6 °C 1004.6 in /  34015.8 hPa WSW 7.9 mph /  12.7 km/h 8.0 mph /  12.9 km/h 95 % 0.0 in /  0 mm
22:56 8.3 °F /  -13.2 °C 7.5 °F /  -13.6 °C 1004.6 in /  34015.8 hPa WSW 4.7 mph /  7.6 km/h 14.5 mph /  23.3 km/h 95 % 0.0 in /  0 mm
23:02 8.3 °F /  -13.2 °C 7.5 °F /  -13.6 °C 1004.6 in /  34015.8 hPa WSW 4.7 mph /  7.6 km/h 12.9 mph /  20.8 km/h 95 % 0.5 in /  12.7 mm
23:08 8.2 °F /  -13.2 °C 7.4 °F /  -13.7 °C 1004.6 in /  34015.8 hPa WSW 4.7 mph /  7.6 km/h 6.4 mph /  10.3 km/h 95 % 0.5 in /  12.7 mm
23:14 8.2 °F /  -13.2 °C 7.6 °F /  -13.6 °C 1004.6 in /  34015.8 hPa Calm   4.8 mph /  7.7 km/h 96 % 0.5 in /  12.7 mm
23:20 8.2 °F /  -13.2 °C 7.6 °F /  -13.6 °C 1004.6 in /  34015.8 hPa WSW 3.2 mph /  5.1 km/h 6.4 mph /  10.3 km/h 96 % 0.5 in /  12.7 mm
23:26 8.2 °F /  -13.2 °C 7.6 °F /  -13.6 °C 1004.6 in /  34015.8 hPa SW 6.4 mph /  10.3 km/h 6.4 mph /  10.3 km/h 96 % 0.5 in /  12.7 mm
23:32 8.2 °F /  -13.2 °C 7.6 °F /  -13.6 °C 1004.6 in /  34015.8 hPa SW 1.4 mph /  2.3 km/h 4.8 mph /  7.7 km/h 96 % 0.5 in /  12.7 mm
23:42 8.2 °F /  -13.2 °C 7.6 °F /  -13.6 °C 1005.0 in /  34029.3 hPa SSW 1.4 mph /  2.3 km/h 8.0 mph /  12.9 km/h 96 % 0.5 in /  12.7 mm
23:50 8.2 °F /  -13.2 °C 7.6 °F /  -13.6 °C 1004.6 in /  34015.8 hPa SSW 4.7 mph /  7.6 km/h 4.8 mph /  7.7 km/h 96 % 0.5 in /  12.7 mm
23:56 8.1 °F /  -13.3 °C 7.5 °F /  -13.6 °C 1004.6 in /  34015.8 hPa Calm   3.2 mph /  5.1 km/h 96 % 0.5 in /  12.7 mm
Meteo18
Compliments of Weather Underground - 4 mb

Script developed by  Jim McMurry - jmcmurry@mwt.net Adapted for the template by  Wim van der Kuil - Leuven-Template.eu

You find our weather info also at:

European Weather Network

Weather Underground

Equipment we use:

Weather-station
Davis Vue

Weather-program
Meteobridge

Weather-server
Raspberry PI 2 B+

Provider
1 and 1

Davis Vue

Meteobridge

Raspberry PI 2 B+

1 and 1